Time;durP1;ratioP1;P1;durP2;ratioP2;P2;SDS_P1;SDS_P2;PMS_P1;PMS_P2;Temp;Humidity;BMP_temperature;BMP_pressure;BME280_temperature;BME280_humidity;BME280_pressure;Samples;Min_cycle;Max_cycle;Signal;HPM_P1;HPM_P2
2022/01/04 00:02:01;;;;;;;17.03;13.70;;;8.90;99.90;;;;;;4971745;28;20145;-70
2022/01/04 00:04:26;;;;;;;15.60;12.60;;;9.00;99.90;;;;;;4970400;28;20031;-70
2022/01/04 00:06:53;;;;;;;16.90;13.30;;;9.00;99.90;;;;;;4971538;28;20035;-70
2022/01/04 00:09:19;;;;;;;14.73;13.23;;;8.90;99.90;;;;;;4971124;28;20015;-70
2022/01/04 00:11:59;;;;;;;17.43;14.23;;;8.70;99.90;;;;;;4971542;28;20034;-70
2022/01/04 00:14:25;;;;;;;14.63;13.13;;;;;;;;;;4971578;28;20014;-70
2022/01/04 00:16:54;;;;;;;15.23;12.53;;;;;;;;;;4971803;28;20109;-70
2022/01/04 00:19:20;;;;;;;12.23;11.13;;;;;;;;;;4972118;28;20106;-70
2022/01/04 00:21:46;;;;;;;13.67;11.13;;;8.90;99.90;;;;;;4971595;28;20113;-70
2022/01/04 00:24:12;;;;;;;13.70;11.27;;;8.90;99.90;;;;;;4969922;28;20208;-69
2022/01/04 00:26:38;;;;;;;19.70;13.53;;;;;;;;;;4971681;28;20081;-70
2022/01/04 00:29:04;;;;;;;14.67;11.97;;;;;;;;;;4970799;28;20380;-70
2022/01/04 00:31:30;;;;;;;16.00;11.47;;;;;;;;;;4971371;28;20408;-70
2022/01/04 00:33:55;;;;;;;15.87;11.50;;;8.90;99.90;;;;;;4971629;28;20049;-70
2022/01/04 00:36:21;;;;;;;14.57;11.17;;;;;;;;;;4971188;28;20031;-70
2022/01/04 00:38:47;;;;;;;14.23;12.23;;;8.60;99.90;;;;;;4971091;28;20387;-70
2022/01/04 00:41:12;;;;;;;15.07;13.47;;;9.00;99.90;;;;;;4971256;28;20043;-70
2022/01/04 00:43:38;;;;;;;16.73;11.80;;;;;;;;;;4971265;28;20106;-70
2022/01/04 00:46:04;;;;;;;17.77;12.60;;;8.60;99.90;;;;;;4971048;28;20026;-70
2022/01/04 00:50:56;;;;;;;16.87;13.33;;;9.00;99.90;;;;;;4970507;28;20341;-70
2022/01/04 00:53:22;;;;;;;18.00;12.83;;;8.90;99.90;;;;;;4970847;28;20050;-70
2022/01/04 00:55:47;;;;;;;18.17;13.27;;;8.90;99.90;;;;;;4971111;28;20026;-70
2022/01/04 00:58:13;;;;;;;18.53;14.20;;;;;;;;;;4970847;28;20098;-69
2022/01/04 01:00:40;;;;;;;20.53;13.97;;;9.00;99.90;;;;;;4970959;28;20046;-70
2022/01/04 01:03:06;;;;;;;19.17;13.73;;;9.10;99.90;;;;;;4970127;28;20401;-70
2022/01/04 01:05:33;;;;;;;15.53;13.87;;;9.10;99.90;;;;;;4970965;28;20031;-70
2022/01/04 01:07:59;;;;;;;18.20;13.63;;;9.00;99.90;;;;;;4970373;28;20029;-70
2022/01/04 01:10:43;;;;;;;15.77;13.17;;;9.20;99.90;;;;;;4970542;28;20049;-70
2022/01/04 01:13:10;;;;;;;18.92;14.70;;;9.10;99.90;;;;;;4970718;28;20053;-70
2022/01/04 01:15:38;;;;;;;17.80;13.77;;;9.30;99.90;;;;;;4970507;28;20586;-70
2022/01/04 01:18:04;;;;;;;17.97;14.73;;;;;;;;;;4970509;28;20085;-70
2022/01/04 01:20:30;;;;;;;15.17;12.13;;;;;;;;;;4970681;28;20045;-70
2022/01/04 01:22:56;;;;;;;15.77;14.13;;;;;;;;;;4970394;28;20520;-70
2022/01/04 01:25:21;;;;;;;19.67;14.57;;;9.30;99.90;;;;;;4970278;28;20065;-70
2022/01/04 01:27:47;;;;;;;17.00;15.20;;;9.30;99.90;;;;;;4970570;28;20026;-70
2022/01/04 01:30:14;;;;;;;19.27;13.53;;;;;;;;;;4970133;28;20047;-70
2022/01/04 01:32:40;;;;;;;18.37;14.27;;;;;;;;;;4970534;28;20061;-70
2022/01/04 01:35:06;;;;;;;19.93;15.57;;;9.10;99.90;;;;;;4969957;28;20433;-70
2022/01/04 01:37:34;;;;;;;17.00;13.73;;;;;;;;;;4969924;28;20027;-70
2022/01/04 01:40:00;;;;;;;18.23;14.57;;;;;;;;;;4969981;28;20373;-70
2022/01/04 01:42:25;;;;;;;19.93;14.33;;;9.40;99.90;;;;;;4970038;28;20432;-70
2022/01/04 01:44:51;;;;;;;18.87;14.30;;;9.20;99.90;;;;;;4970482;28;20038;-70
2022/01/04 01:47:16;;;;;;;16.77;14.07;;;9.30;99.90;;;;;;4969974;28;20519;-70
2022/01/04 01:49:43;;;;;;;18.50;16.17;;;9.30;99.90;;;;;;4969786;28;20117;-70
2022/01/04 01:52:09;;;;;;;16.57;14.77;;;9.20;99.90;;;;;;4969395;28;20025;-70
2022/01/04 01:54:34;;;;;;;20.53;15.77;;;9.30;99.90;;;;;;4984768;28;20027;-70
2022/01/04 01:57:00;;;;;;;20.67;17.03;;;;;;;;;;4969926;28;20102;-70
2022/01/04 01:59:26;;;;;;;20.37;16.07;;;9.00;99.90;;;;;;4969790;28;20058;-70
2022/01/04 02:01:51;;;;;;;15.47;13.27;;;9.30;99.90;;;;;;4970334;28;20046;-70
2022/01/04 02:04:17;;;;;;;24.73;16.47;;;9.40;99.90;;;;;;4969697;28;20054;-70
2022/01/04 02:06:43;;;;;;;16.87;14.90;;;;;;;;;;4969137;28;20184;-70
2022/01/04 02:09:08;;;;;;;18.23;16.07;;;9.20;99.90;;;;;;4969680;28;20063;-70
2022/01/04 02:11:34;;;;;;;19.53;16.63;;;;;;;;;;4969685;28;20068;-70
2022/01/04 02:14:02;;;;;;;18.50;15.97;;;9.30;99.90;;;;;;4969646;28;20349;-70
2022/01/04 02:16:29;;;;;;;18.13;14.87;;;9.60;99.90;;;;;;4969661;28;20054;-70
2022/01/04 02:19:06;;;;;;;17.03;13.60;;;9.20;99.90;;;;;;4967640;28;20505;-70
2022/01/04 02:21:33;;;;;;;19.20;15.53;;;9.10;99.90;;;;;;4967328;28;20126;-70
2022/01/04 02:23:59;;;;;;;20.13;15.43;;;;;;;;;;4969446;28;20037;-69
2022/01/04 02:26:25;;;;;;;20.50;16.40;;;9.00;99.90;;;;;;4969580;28;20062;-69
2022/01/04 02:28:51;;;;;;;17.77;14.90;;;9.00;99.90;;;;;;4969723;28;20041;-69
2022/01/04 02:31:17;;;;;;;20.07;15.10;;;9.10;99.90;;;;;;4969162;28;20431;-69
2022/01/04 02:33:42;;;;;;;18.07;15.77;;;9.00;99.90;;;;;;4969485;28;20105;-69
2022/01/04 02:36:08;;;;;;;14.93;13.13;;;;;;;;;;4968486;28;20097;-69
2022/01/04 02:38:34;;;;;;;21.63;15.47;;;9.10;99.90;;;;;;4969417;28;20034;-69
2022/01/04 02:41:01;;;;;;;16.77;14.77;;;9.10;99.90;;;;;;4969137;28;20389;-69
2022/01/04 02:43:26;;;;;;;18.23;14.43;;;8.80;99.90;;;;;;4969268;28;20033;-69
2022/01/04 02:45:52;;;;;;;16.00;13.67;;;9.10;99.90;;;;;;4969585;28;20105;-70
2022/01/04 02:48:18;;;;;;;16.03;14.33;;;;;;;;;;4968442;28;20038;-70
2022/01/04 02:50:44;;;;;;;17.70;14.10;;;;;;;;;;4968377;28;20113;-69
2022/01/04 02:53:09;;;;;;;16.40;13.30;;;9.10;99.90;;;;;;4967811;28;20110;-69
2022/01/04 02:55:35;;;;;;;14.50;12.93;;;9.00;99.90;;;;;;4969039;28;20023;-70
2022/01/04 02:58:00;;;;;;;21.27;14.43;;;9.00;99.90;;;;;;4969080;28;20066;-69
2022/01/04 03:00:26;;;;;;;17.17;13.20;;;8.90;99.90;;;;;;4968829;28;20047;-70
2022/01/04 03:02:52;;;;;;;19.73;14.57;;;9.20;99.90;;;;;;4969069;28;20031;-69
2022/01/04 03:05:18;;;;;;;19.20;14.23;;;9.10;99.90;;;;;;4968053;28;20045;-70
2022/01/04 03:07:44;;;;;;;15.20;12.27;;;9.00;99.90;;;;;;4968443;28;20031;-70
2022/01/04 03:10:10;;;;;;;14.93;13.23;;;9.10;99.90;;;;;;4968788;28;20420;-69
2022/01/04 03:12:39;;;;;;;12.87;10.80;;;9.10;99.90;;;;;;4968720;28;20077;-70
2022/01/04 03:15:05;;;;;;;12.13;10.50;;;9.00;99.90;;;;;;4968535;28;20050;-69
2022/01/04 03:17:31;;;;;;;16.60;13.40;;;;;;;;;;4968713;28;20027;-69
2022/01/04 03:19:57;;;;;;;14.00;12.50;;;;;;;;;;4968373;28;20113;-69
2022/01/04 03:22:23;;;;;;;17.57;12.77;;;9.20;99.90;;;;;;4967614;28;20034;-70
2022/01/04 03:24:48;;;;;;;17.37;13.77;;;9.20;99.90;;;;;;4967516;28;20376;-70
2022/01/04 03:27:14;;;;;;;17.27;13.33;;;;;;;;;;4966872;28;20137;-69
2022/01/04 03:29:40;;;;;;;17.17;14.17;;;;;;;;;;4967563;28;20058;-69
2022/01/04 03:32:06;;;;;;;16.70;13.93;;;9.20;99.90;;;;;;4966967;28;20037;-69
2022/01/04 03:34:32;;;;;;;18.43;13.27;;;9.20;99.90;;;;;;4968071;28;20053;-70
2022/01/04 03:36:57;;;;;;;15.17;13.57;;;9.20;99.90;;;;;;4968760;28;20380;-69
2022/01/04 03:39:23;;;;;;;18.17;13.43;;;;;;;;;;4968423;28;20034;-70
2022/01/04 03:41:50;;;;;;;18.87;14.57;;;9.00;99.90;;;;;;4968933;28;20041;-70
2022/01/04 03:44:18;;;;;;;16.00;12.63;;;9.20;99.90;;;;;;4983371;28;20554;-69
2022/01/04 03:46:45;;;;;;;18.67;14.80;;;9.00;99.90;;;;;;4968134;28;20114;-70
2022/01/04 03:49:11;;;;;;;16.87;14.60;;;;;;;;;;4968587;28;20027;-70
2022/01/04 03:51:36;;;;;;;17.70;13.60;;;9.00;99.90;;;;;;4967134;28;20530;-69
2022/01/04 03:54:02;;;;;;;17.60;13.63;;;8.90;99.90;;;;;;4968442;28;20119;-70
2022/01/04 03:56:28;;;;;;;15.13;12.53;;;;;;;;;;4968682;28;20027;-69
2022/01/04 03:58:54;;;;;;;19.37;13.77;;;9.00;99.90;;;;;;4970580;28;20027;-69
2022/01/04 04:01:20;;;;;;;18.00;14.20;;;8.80;99.90;;;;;;4970012;28;20041;-69
2022/01/04 04:03:46;;;;;;;16.93;13.40;;;;;;;;;;4971869;28;20092;-70
2022/01/04 04:06:11;;;;;;;15.90;12.20;;;9.00;99.90;;;;;;4971941;28;20031;-69
2022/01/04 04:08:37;;;;;;;14.27;12.77;;;8.70;99.90;;;;;;4971788;28;20027;-69
2022/01/04 04:11:02;;;;;;;15.43;11.90;;;8.50;99.90;;;;;;4971706;28;20174;-69
2022/01/04 04:13:28;;;;;;;19.97;14.07;;;8.90;99.90;;;;;;4971871;28;20050;-70
2022/01/04 04:15:53;;;;;;;18.00;13.97;;;8.80;99.90;;;;;;4971751;28;20488;-69
2022/01/04 04:18:19;;;;;;;16.47;13.57;;;8.90;99.90;;;;;;4971641;28;20030;-70
2022/01/04 04:20:45;;;;;;;18.37;11.93;;;8.80;99.90;;;;;;4971683;28;20121;-69
2022/01/04 04:23:11;;;;;;;16.13;13.37;;;9.00;99.90;;;;;;4971402;28;20050;-70
2022/01/04 04:25:38;;;;;;;19.13;13.87;;;8.90;99.90;;;;;;4971684;28;20129;-70
2022/01/04 04:28:04;;;;;;;16.03;13.10;;;8.60;99.90;;;;;;4971429;28;20031;-70
2022/01/04 04:30:30;;;;;;;15.30;12.73;;;;;;;;;;4971085;28;20188;-70
2022/01/04 04:32:55;;;;;;;18.10;14.33;;;8.90;99.90;;;;;;4971490;28;20226;-69
2022/01/04 04:35:21;;;;;;;15.37;12.90;;;;;;;;;;4971515;28;20026;-69
2022/01/04 04:37:47;;;;;;;19.43;14.80;;;8.80;99.90;;;;;;4971663;28;20177;-69
2022/01/04 04:40:13;;;;;;;17.70;14.20;;;8.80;99.90;;;;;;4970043;28;20083;-70
2022/01/04 04:42:38;;;;;;;20.00;16.60;;;8.90;99.90;;;;;;4971560;28;20030;-70
2022/01/04 04:45:05;;;;;;;21.20;16.07;;;8.80;99.90;;;;;;4969822;28;20041;-70
2022/01/04 04:47:31;;;;;;;19.70;14.30;;;8.70;99.90;;;;;;4971055;28;20081;-70
2022/01/04 04:49:57;;;;;;;21.10;16.67;;;;;;;;;;4971656;28;20026;-70
2022/01/04 04:52:23;;;;;;;21.23;17.13;;;;;;;;;;4970869;28;20054;-70
2022/01/04 04:54:48;;;;;;;24.60;16.80;;;7.90;99.90;;;;;;4971522;28;20027;-70
2022/01/04 04:57:15;;;;;;;18.47;15.63;;;8.60;99.90;;;;;;4971171;28;20041;-70
2022/01/04 04:59:40;;;;;;;23.60;17.67;;;8.30;99.90;;;;;;4985445;28;20237;-70
2022/01/04 05:02:09;;;;;;;19.27;15.87;;;8.70;99.90;;;;;;4969860;28;20412;-70
2022/01/04 05:04:35;;;;;;;24.87;17.27;;;8.80;99.90;;;;;;4969335;28;20031;-70
2022/01/04 05:07:01;;;;;;;24.13;17.90;;;8.60;99.90;;;;;;4971261;28;20093;-70
2022/01/04 05:09:27;;;;;;;22.70;17.90;;;;;;;;;;4970349;28;20490;-69
2022/01/04 05:11:53;;;;;;;21.13;17.90;;;8.60;99.90;;;;;;4970846;28;20380;-70
2022/01/04 05:14:19;;;;;;;24.13;17.37;;;;;;;;;;4970279;28;20038;-70
2022/01/04 05:16:45;;;;;;;20.77;17.40;;;;;;;;;;4970194;28;20464;-70
2022/01/04 05:19:10;;;;;;;22.83;17.37;;;8.70;99.90;;;;;;4971196;28;20023;-70
2022/01/04 05:21:36;;;;;;;19.03;16.37;;;8.60;99.90;;;;;;4970225;28;20440;-70
2022/01/04 05:24:02;;;;;;;21.73;18.23;;;8.60;99.90;;;;;;4971017;28;20027;-70
2022/01/04 05:26:27;;;;;;;16.83;15.03;;;8.70;99.90;;;;;;4970188;28;20113;-70
2022/01/04 05:28:53;;;;;;;21.10;15.73;;;8.60;99.90;;;;;;4970475;28;20027;-70
2022/01/04 05:31:19;;;;;;;17.60;15.33;;;8.70;99.90;;;;;;4984949;28;20050;-70
2022/01/04 05:33:44;;;;;;;21.97;16.70;;;8.80;99.90;;;;;;4970316;28;20026;-70
2022/01/04 05:36:10;;;;;;;18.00;15.70;;;;;;;;;;4970921;28;20464;-70
2022/01/04 05:38:36;;;;;;;21.17;14.67;;;8.80;99.90;;;;;;4969941;28;20039;-70
2022/01/04 05:41:02;;;;;;;21.67;16.33;;;;;;;;;;4969205;28;20041;-69
2022/01/04 05:43:27;;;;;;;19.13;16.57;;;8.80;99.90;;;;;;4969372;28;20027;-69
2022/01/04 05:45:53;;;;;;;20.37;14.93;;;8.70;99.90;;;;;;4970433;28;20500;-69
2022/01/04 05:48:20;;;;;;;19.67;15.73;;;;;;;;;;4970021;28;20094;-69
2022/01/04 05:50:49;;;;;;;21.83;16.93;;;8.70;99.90;;;;;;4970133;28;20117;-69
2022/01/04 05:53:15;;;;;;;17.60;15.40;;;8.70;99.90;;;;;;4969743;28;20054;-70
2022/01/04 05:55:41;;;;;;;19.87;15.43;;;;;;;;;;4968287;28;20026;-69
2022/01/04 05:58:07;;;;;;;22.03;17.00;;;8.80;99.90;;;;;;4970019;28;20093;-70
2022/01/04 06:00:32;;;;;;;20.07;17.40;;;8.80;99.90;;;;;;4969441;28;20539;-70
2022/01/04 06:03:00;;;;;;;21.07;16.40;;;8.70;99.90;;;;;;4968734;28;20034;-70
2022/01/04 06:05:26;;;;;;;19.67;15.60;;;8.70;99.90;;;;;;4984324;28;20043;-70
2022/01/04 06:07:52;;;;;;;19.50;15.53;;;8.60;99.90;;;;;;4970138;28;20030;-70
2022/01/04 06:10:18;;;;;;;17.57;14.13;;;;;;;;;;4984696;28;20088;-70
2022/01/04 06:15:11;;;;;;;20.60;15.40;;;8.60;99.90;;;;;;4970061;28;20026;-70
2022/01/04 06:17:50;;;;;;;21.40;16.03;;;8.60;99.90;;;;;;4969032;28;20031;-70
2022/01/04 06:20:18;;;;;;;21.03;16.23;;;8.60;99.90;;;;;;4970041;28;20065;-70
2022/01/04 06:22:43;;;;;;;17.57;14.47;;;8.40;99.90;;;;;;4968329;28;20046;-70
2022/01/04 06:25:12;;;;;;;20.20;15.43;;;8.60;99.90;;;;;;4969979;28;20058;-70
2022/01/04 06:27:40;;;;;;;21.07;16.80;;;8.60;99.90;;;;;;4968729;28;20088;-70
2022/01/04 06:30:06;;;;;;;22.33;17.50;;;8.50;99.90;;;;;;4969615;28;20047;-70
2022/01/04 06:32:32;;;;;;;21.93;17.87;;;8.50;99.90;;;;;;4969171;28;20033;-70
2022/01/04 06:34:57;;;;;;;26.33;17.80;;;8.40;99.90;;;;;;4969609;28;20031;-70
2022/01/04 06:37:23;;;;;;;25.13;17.47;;;;;;;;;;4969174;28;20019;-67
2022/01/04 06:39:49;;;;;;;24.60;17.07;;;8.50;99.90;;;;;;4968084;28;20038;-69
2022/01/04 06:42:15;;;;;;;23.53;16.90;;;;;;;;;;4968960;28;20038;-69
2022/01/04 06:44:43;;;;;;;20.60;15.57;;;8.60;99.90;;;;;;4968989;28;20813;-69
2022/01/04 06:47:09;;;;;;;24.27;17.80;;;8.60;99.90;;;;;;4969423;28;20030;-69
2022/01/04 06:49:37;;;;;;;23.07;16.97;;;8.50;99.90;;;;;;4968812;28;20067;-69
2022/01/04 06:52:04;;;;;;;23.97;18.33;;;8.60;99.90;;;;;;4969754;28;20437;-69
2022/01/04 06:54:30;;;;;;;21.80;17.17;;;8.50;99.90;;;;;;4967570;28;20030;-69
2022/01/04 06:56:55;;;;;;;27.87;18.43;;;8.50;99.90;;;;;;4968855;28;20035;-69
2022/01/04 06:59:21;;;;;;;27.73;19.43;;;8.60;99.90;;;;;;4967064;28;20030;-69
2022/01/04 07:01:47;;;;;;;23.87;18.63;;;8.70;99.90;;;;;;4967237;28;20073;-69
2022/01/04 07:04:15;;;;;;;25.97;18.67;;;8.60;99.90;;;;;;4969495;28;20038;-69
2022/01/04 07:06:41;;;;;;;24.00;19.20;;;8.50;99.90;;;;;;4968731;28;20400;-69
2022/01/04 07:09:07;;;;;;;23.53;18.17;;;8.50;99.90;;;;;;4969373;28;20034;-69
2022/01/04 07:11:34;;;;;;;22.37;17.67;;;8.60;99.90;;;;;;4968171;28;20054;-69
2022/01/04 07:14:00;;;;;;;26.70;19.20;;;8.60;99.90;;;;;;4969330;28;20102;-69
2022/01/04 07:16:26;;;;;;;27.93;20.20;;;8.50;99.90;;;;;;4968592;28;20360;-69
2022/01/04 07:18:52;;;;;;;25.43;18.13;;;8.50;99.90;;;;;;4969135;28;20023;-69
2022/01/04 07:21:19;;;;;;;24.77;18.27;;;8.60;99.90;;;;;;4969118;28;20502;-69
2022/01/04 07:23:45;;;;;;;26.77;19.70;;;8.50;99.90;;;;;;4968658;28;20504;-69
2022/01/04 07:26:17;;;;;;;25.37;18.03;;;8.50;99.90;;;;;;4968916;28;20030;-69
2022/01/04 07:28:44;;;;;;;22.00;17.83;;;8.50;99.90;;;;;;4967237;28;20434;-69
2022/01/04 07:31:11;;;;;;;24.00;17.27;;;;;;;;;;4969028;28;20055;-69
2022/01/04 07:33:37;;;;;;;28.37;20.27;;;8.40;99.90;;;;;;4969402;28;20333;-69
2022/01/04 07:36:03;;;;;;;26.77;19.10;;;8.40;99.90;;;;;;4972869;28;20039;-69
2022/01/04 07:38:29;;;;;;;29.30;18.93;;;;;;;;;;4971936;28;20042;-69
2022/01/04 07:40:55;;;;;;;27.20;18.10;;;8.40;99.90;;;;;;4972275;28;20424;-69
2022/01/04 07:43:21;;;;;;;31.73;21.80;;;;;;;;;;4972527;28;20053;-69
2022/01/04 07:45:46;;;;;;;26.13;16.60;;;8.20;99.90;;;;;;4972257;28;20027;-69
2022/01/04 07:48:12;;;;;;;26.27;19.17;;;;;;;;;;4972438;28;20384;-69
2022/01/04 07:50:38;;;;;;;25.63;19.00;;;8.30;99.90;;;;;;4972223;28;20031;-69
2022/01/04 07:53:07;;;;;;;31.30;20.10;;;8.20;99.90;;;;;;4972116;28;20030;-69
2022/01/04 07:55:33;;;;;;;25.97;18.37;;;8.00;99.90;;;;;;4971733;28;20031;-69
2022/01/04 07:57:59;;;;;;;26.23;19.60;;;8.20;99.90;;;;;;4972448;28;20111;-69
2022/01/04 08:00:25;;;;;;;25.23;18.07;;;7.80;99.90;;;;;;4971815;28;20042;-69
2022/01/04 08:02:51;;;;;;;25.27;18.57;;;8.20;99.90;;;;;;4971997;28;20027;-70
2022/01/04 08:05:17;;;;;;;27.60;18.67;;;8.30;99.90;;;;;;4972413;28;20064;-69
2022/01/04 08:07:43;;;;;;;28.07;19.63;;;;;;;;;;4969875;28;20027;-69
2022/01/04 08:10:10;;;;;;;33.40;22.87;;;8.40;99.90;;;;;;4971175;28;20106;-69
2022/01/04 08:12:36;;;;;;;31.50;20.70;;;8.20;99.90;;;;;;4971660;28;20081;-70
2022/01/04 08:15:04;;;;;;;32.40;21.43;;;8.40;99.90;;;;;;4971967;28;20460;-69
2022/01/04 08:17:30;;;;;;;32.27;21.70;;;8.40;99.90;;;;;;4971371;28;20035;-69
2022/01/04 08:19:56;;;;;;;33.23;21.80;;;;;;;;;;4986706;28;20130;-69
2022/01/04 08:22:22;;;;;;;29.30;19.97;;;;;;;;;;4971232;28;20105;-69
2022/01/04 08:24:48;;;;;;;26.37;19.03;;;;;;;;;;4971861;28;20035;-69
2022/01/04 08:27:13;;;;;;;30.90;20.10;;;8.40;99.90;;;;;;4970422;28;20073;-70
2022/01/04 08:29:39;;;;;;;35.67;22.27;;;8.50;99.90;;;;;;4971210;28;20047;-70
2022/01/04 08:32:05;;;;;;;30.47;20.60;;;;;;;;;;4971811;28;20097;-70
2022/01/04 08:34:31;;;;;;;33.63;22.20;;;8.50;99.90;;;;;;4970798;28;20481;-69
2022/01/04 08:36:57;;;;;;;36.70;21.40;;;;;;;;;;4986148;28;20110;-70
2022/01/04 08:39:26;;;;;;;30.67;20.93;;;8.50;99.90;;;;;;4971035;28;20034;-70
2022/01/04 08:41:55;;;;;;;36.17;22.53;;;8.50;99.90;;;;;;4971621;28;20035;-70
2022/01/04 08:44:23;;;;;;;32.80;23.30;;;8.50;99.90;;;;;;4971015;28;20026;-70
2022/01/04 08:46:50;;;;;;;31.83;22.23;;;8.80;99.90;;;;;;4970461;28;20781;-70
2022/01/04 08:49:16;;;;;;;34.70;22.83;;;8.70;99.90;;;;;;4970434;28;20113;-70
2022/01/04 08:51:42;;;;;;;33.70;21.07;;;8.60;99.90;;;;;;4969401;28;20070;-67
2022/01/04 08:54:07;;;;;;;33.73;21.23;;;8.50;99.90;;;;;;4985176;28;20035;-67
2022/01/04 08:56:34;;;;;;;36.53;22.97;;;8.70;99.90;;;;;;4970145;28;20404;-67
2022/01/04 08:59:00;;;;;;;32.47;20.67;;;8.10;99.90;;;;;;4984885;28;20811;-67
2022/01/04 09:01:26;;;;;;;33.77;21.87;;;8.70;99.90;;;;;;4969834;28;20455;-68
2022/01/04 09:03:52;;;;;;;30.03;21.03;;;;;;;;;;4969308;28;20030;-68
2022/01/04 09:06:19;;;;;;;37.17;22.20;;;;;;;;;;4969562;28;20039;-68
2022/01/04 09:08:45;;;;;;;33.40;21.70;;;8.60;99.90;;;;;;4969584;28;20380;-68
2022/01/04 09:11:11;;;;;;;34.13;21.87;;;8.80;99.90;;;;;;4970146;28;20027;-67
2022/01/04 09:13:41;;;;;;;41.17;24.03;;;8.80;99.90;;;;;;4969479;28;20090;-69
2022/01/04 09:18:50;;;;;;;34.03;21.17;;;8.70;99.90;;;;;;4968818;28;20549;-68
2022/01/04 09:21:27;;;;;;;32.10;20.10;;;8.70;99.90;;;;;;4968838;28;20042;-68
2022/01/04 09:23:55;;;;;;;37.63;23.30;;;8.80;99.90;;;;;;4966796;28;20484;-67
2022/01/04 09:26:22;;;;;;;39.20;25.10;;;8.70;99.90;;;;;;4968968;28;20037;-68
2022/01/04 09:28:48;;;;;;;41.40;26.53;;;8.70;99.90;;;;;;4970767;28;20106;-68
2022/01/04 09:31:14;;;;;;;40.10;25.50;;;8.40;99.90;;;;;;4970736;28;20134;-68
2022/01/04 09:33:40;;;;;;;39.80;21.57;;;8.50;99.90;;;;;;4970258;28;20451;-68
2022/01/04 09:36:06;;;;;;;43.50;25.30;;;8.60;99.90;;;;;;4968886;28;20194;-68
2022/01/04 09:38:32;;;;;;;42.33;25.43;;;8.50;99.90;;;;;;4970432;28;20053;-67
2022/01/04 09:40:57;;;;;;;42.67;26.03;;;8.50;99.90;;;;;;4970317;28;20047;-68
2022/01/04 09:43:24;;;;;;;42.87;25.90;;;8.40;99.90;;;;;;4970135;28;20110;-68
2022/01/04 09:45:51;;;;;;;42.47;25.73;;;8.50;99.90;;;;;;4969553;28;20027;-68
2022/01/04 09:48:20;;;;;;;23.33;14.23;;;;;;;;;;4970066;28;20031;-68
2022/01/04 09:50:47;;;;;;;10.83;7.77;;;8.20;99.90;;;;;;4969146;28;20033;-68
2022/01/04 09:53:19;;;;;;;10.57;6.90;;;8.10;99.90;;;;;;4984991;28;20085;-68
2022/01/04 09:55:51;;;;;;;12.27;8.03;;;8.20;99.90;;;;;;4969285;28;20082;-68
2022/01/04 09:58:22;;;;;;;12.00;7.23;;;8.00;99.90;;;;;;4970407;28;20110;-68
2022/01/04 10:00:49;;;;;;;8.70;6.03;;;8.10;99.90;;;;;;4969989;28;20122;-68
2022/01/04 10:03:22;;;;;;;7.97;4.93;;;8.00;99.90;;;;;;4970150;28;20424;-67
2022/01/04 10:05:48;;;;;;;10.47;4.93;;;8.10;99.90;;;;;;4969367;28;20029;-67
2022/01/04 10:08:14;;;;;;;8.00;5.43;;;7.90;99.90;;;;;;4970183;28;20039;-67
2022/01/04 10:10:42;;;;;;;6.07;4.20;;;8.00;99.90;;;;;;4969911;28;20041;-67
2022/01/04 10:13:16;;;;;;;7.07;4.53;;;8.00;99.90;;;;;;4970017;28;20081;-67
2022/01/04 10:15:47;;;;;;;7.80;4.70;;;8.00;99.90;;;;;;4969801;28;20487;-67
2022/01/04 10:18:13;;;;;;;8.10;4.50;;;;;;;;;;4969162;28;20073;-68
2022/01/04 10:20:52;;;;;;;7.43;4.13;;;7.90;99.90;;;;;;4969792;28;20050;-67
2022/01/04 10:23:21;;;;;;;8.73;4.50;;;8.00;99.90;;;;;;4968699;28;20035;-68
2022/01/04 10:25:47;;;;;;;8.20;6.03;;;8.10;99.90;;;;;;4966670;28;20025;-68
2022/01/04 10:28:29;;;;;;;8.13;5.17;;;8.00;99.90;;;;;;4969452;28;20035;-68
2022/01/04 10:30:59;;;;;;;10.67;7.57;;;8.10;99.90;;;;;;4967982;28;20445;-68
2022/01/04 10:33:25;;;;;;;12.47;8.77;;;8.30;99.90;;;;;;4968508;28;20484;-67
2022/01/04 10:35:53;;;;;;;15.37;10.17;;;8.20;99.90;;;;;;4969035;28;20015;-67
2022/01/04 10:38:23;;;;;;;19.43;13.03;;;8.10;99.90;;;;;;4983969;28;20057;-67
2022/01/04 10:40:49;;;;;;;18.90;13.20;;;8.40;99.90;;;;;;4968698;28;20484;-68
2022/01/04 10:43:18;;;;;;;20.23;13.87;;;8.20;99.90;;;;;;4968597;28;20038;-68
2022/01/04 10:45:45;;;;;;;26.77;14.90;;;8.50;99.90;;;;;;4966455;28;20054;-68
2022/01/04 10:48:23;;;;;;;29.40;16.63;;;8.50;99.90;;;;;;4967948;28;20177;-68
2022/01/04 10:50:57;;;;;;;22.60;15.20;;;8.70;99.90;;;;;;4965375;28;20098;-68
2022/01/04 10:53:24;;;;;;;;;;;9.60;99.90;;;;;;4967547;28;20101;-68
2022/01/04 10:55:54;;;;;;;29.30;17.50;;;8.60;99.90;;;;;;4968007;28;19910;-67
2022/01/04 10:58:23;;;;;;;25.47;16.67;;;8.70;99.90;;;;;;4966512;28;20118;-68
2022/01/04 11:00:55;;;;;;;21.87;16.63;;;8.70;99.90;;;;;;4968071;28;20394;-67
2022/01/04 11:03:25;;;;;;;29.30;18.60;;;8.80;99.90;;;;;;4966699;28;20027;-67
2022/01/04 11:05:59;;;;;;;25.80;18.70;;;8.80;99.90;;;;;;4968816;28;20166;-67
2022/01/04 11:08:25;;;;;;;31.67;21.58;;;8.90;99.90;;;;;;4971302;28;20026;-67
2022/01/04 11:10:52;;;;;;;33.27;22.23;;;;;;;;;;4974997;28;20034;-68
2022/01/04 11:13:18;;;;;;;35.83;23.33;;;8.90;99.90;;;;;;4975446;28;20023;-68
2022/01/04 11:15:44;;;;;;;28.40;21.07;;;;;;;;;;4972260;28;20027;-68
2022/01/04 11:18:11;;;;;;;32.63;22.63;;;8.90;99.90;;;;;;4975100;28;20218;-67
2022/01/04 11:20:39;;;;;;;32.40;21.93;;;8.90;99.90;;;;;;4973631;28;20069;-68
2022/01/04 11:23:05;;;;;;;30.70;21.30;;;;;;;;;;4971932;28;20058;-67
2022/01/04 11:25:31;;;;;;;25.03;18.00;;;9.10;99.90;;;;;;4972418;28;20062;-68
2022/01/04 11:28:00;;;;;;;26.27;17.77;;;8.90;99.90;;;;;;4971895;28;20063;-68
2022/01/04 11:30:46;;;;;;;27.07;16.90;;;9.00;99.90;;;;;;4973109;28;20468;-68
2022/01/04 11:33:26;;;;;;;25.33;16.50;;;9.00;99.90;;;;;;4954464;28;20042;-67
2022/01/04 11:35:54;;;;;;;23.50;15.20;;;9.00;99.90;;;;;;4973241;28;20166;-67
2022/01/04 11:38:35;;;;;;;25.40;18.07;;;8.90;99.90;;;;;;4975346;28;20137;-68
2022/01/04 11:41:01;;;;;;;20.73;16.13;;;8.90;99.90;;;;;;4974878;28;20181;-68
2022/01/04 11:43:27;;;;;;;24.93;17.70;;;;;;;;;;4974163;28;20054;-67
2022/01/04 11:45:52;;;;;;;22.50;17.03;;;8.80;99.90;;;;;;4974314;28;20065;-67
2022/01/04 11:48:39;;;;;;;23.60;15.83;;;8.80;99.90;;;;;;4975340;28;20034;-67
2022/01/04 11:51:26;;;;;;;23.87;16.07;;;8.40;99.90;;;;;;4974712;28;20410;-67
2022/01/04 11:54:14;;;;;;;23.50;17.03;;;8.80;99.90;;;;;;4973393;28;20485;-67
2022/01/04 11:57:15;;;;;;;25.23;16.43;;;8.70;99.90;;;;;;4974089;28;20038;-67
2022/01/04 11:59:45;;;;;;;23.10;14.30;;;8.80;99.90;;;;;;4971649;28;20487;-67
2022/01/04 12:02:41;;;;;;;22.97;13.53;;;8.80;99.90;;;;;;4973691;28;20030;-67
2022/01/04 12:05:13;;;;;;;16.77;11.40;;;8.60;99.90;;;;;;4975158;28;20026;-68
2022/01/04 12:07:39;;;;;;;19.00;11.30;;;8.70;99.90;;;;;;4975217;28;20030;-68
2022/01/04 12:10:30;;;;;;;14.00;9.23;;;8.70;99.90;;;;;;4974570;28;20030;-68
2022/01/04 12:13:01;;;;;;;16.17;10.17;;;8.80;99.90;;;;;;4974064;28;20097;-68
2022/01/04 12:15:32;;;;;;;16.57;11.13;;;8.60;99.90;;;;;;4974209;28;20029;-68
2022/01/04 12:18:08;;;;;;;16.20;9.77;;;7.60;99.90;;;;;;4974393;28;20031;-68
2022/01/04 12:20:43;;;;;;;16.60;9.70;;;8.60;99.90;;;;;;4970497;28;20047;-68
2022/01/04 12:23:30;;;;;;;17.67;10.87;;;8.50;99.90;;;;;;4972120;28;20093;-68
2022/01/04 12:26:05;;;;;;;17.70;11.03;;;8.20;99.90;;;;;;4971780;28;20061;-68
2022/01/04 12:28:39;;;;;;;12.07;8.50;;;8.40;99.90;;;;;;4971434;28;20042;-68
2022/01/04 12:31:17;;;;;;;13.73;9.17;;;8.70;99.90;;;;;;4970887;28;20059;-68
2022/01/04 12:33:44;;;;;;;18.10;11.23;;;8.30;99.90;;;;;;4972185;28;20065;-68
2022/01/04 12:36:22;;;;;;;14.23;9.50;;;8.30;99.90;;;;;;4971693;28;20027;-68
2022/01/04 12:38:48;;;;;;;11.40;7.57;;;8.30;99.90;;;;;;4971860;28;20470;-68
2022/01/04 12:41:15;;;;;;;18.77;6.57;;;8.40;99.90;;;;;;4970594;28;20126;-68
2022/01/04 12:43:41;;;;;;;13.97;5.20;;;;;;;;;;4958578;28;20035;-68
2022/01/04 12:46:07;;;;;;;10.07;3.90;;;;;;;;;;4971448;28;20539;-68
2022/01/04 12:48:50;;;;;;;7.20;4.47;;;8.10;99.90;;;;;;4971371;28;20376;-68
2022/01/04 12:51:28;;;;;;;9.43;5.20;;;8.10;99.90;;;;;;4971344;28;20519;-67
2022/01/04 12:53:59;;;;;;;10.80;5.53;;;8.00;99.90;;;;;;4970845;28;20365;-67
2022/01/04 12:56:26;;;;;;;7.60;5.23;;;8.00;99.90;;;;;;4985119;28;20047;-68
2022/01/04 12:58:52;;;;;;;6.47;3.13;;;8.00;99.90;;;;;;4970276;28;20034;-67
2022/01/04 13:01:27;;;;;;;6.27;3.20;;;7.90;99.90;;;;;;4970990;28;20035;-67
2022/01/04 13:03:53;;;;;;;5.63;2.17;;;7.90;99.90;;;;;;4970387;28;20022;-68
2022/01/04 13:06:21;;;;;;;3.80;1.77;;;;;;;;;;4970543;28;20097;-67
2022/01/04 13:08:51;;;;;;;5.00;1.93;;;7.90;99.90;;;;;;4969487;28;20062;-68